Hiyodori — JD2366 — position and weather

sailwx.info

Track history (hours):
 
Tides and Currents Weather Stations Pressure Air Temp Water Temp Dewpoint Dewpoint Depression Visibility Wind Speed Wind Dir Waves Ship Positions

Hiyodori

Last reported at 2016-Jun-25 04:31 UTC. Time now 2016-Jun-25 05:18 UTC.
Position N 35°24' E 139°41'.

Length 88 m; draft 3.6 m.

Type: Cargo ship. MMSI: 431000132.

Date/timePositionNaut miles runAvg speedWind from/ knotsBaromVisibWave heightAir tempDewpointWater temp
2016-Jun-25 04:31N 35°24' E 139°41'2 1.6
2016-Jun-25 03:33N 35°23' E 139°42'2 1.6
2016-Jun-25 02:33N 35°22' E 139°43'5 5.4
2016-Jun-25 01:34N 35°17' E 139°46'1211.7
2016-Jun-25 00:33N 35°05' E 139°44'65 1.8
2016-Jun-23 13:10N 34°32' E 138°35'5010.8
2016-Jun-23 08:30N 34°59' E 139°27'1111.7
2016-Jun-23 07:32N 35°05' E 139°38'2110.5
2016-Jun-23 05:34N 35°25' E 139°45'10 9.6
2016-Jun-23 04:33N 35°34' E 139°48'2 2.2
2016-Jun-23 03:33N 35°36' E 139°46'0 0.0
2016-Jun-23 02:34N 35°36' E 139°46'0 0.0
2016-Jun-23 01:33N 35°36' E 139°46'0 0.0
2016-Jun-23 00:34N 35°36' E 139°46'6 5.1
2016-Jun-22 23:26N 35°34' E 139°53'0 0.0
2016-Jun-22 22:26N 35°34' E 139°53'0 0.0
2016-Jun-22 21:29N 35°34' E 139°53'0 0.0
2016-Jun-22 20:32N 35°34' E 139°53'0 0.0
2016-Jun-22 19:32N 35°34' E 139°53'0 0.0
2016-Jun-22 18:32N 35°34' E 139°53'0 0.0
2016-Jun-22 17:32N 35°34' E 139°53'0 0.0
2016-Jun-22 16:32N 35°34' E 139°53'0 0.0
2016-Jun-22 15:32N 35°34' E 139°53'0 0.0
2016-Jun-22 14:32N 35°34' E 139°53'0 0.1
2016-Jun-22 13:33N 35°34' E 139°53'0 0.0
2016-Jun-22 12:33N 35°34' E 139°53'0 0.0
2016-Jun-22 11:33N 35°34' E 139°53'0 0.0
2016-Jun-22 10:33N 35°34' E 139°53'0 0.1
2016-Jun-22 09:33N 35°34' E 139°53'0 0.0
2016-Jun-22 08:33N 35°34' E 139°53'0 0.0
2016-Jun-22 07:33N 35°34' E 139°53'2 1.8
2016-Jun-22 06:33N 35°32' E 139°51'6 5.7
2016-Jun-22 05:33N 35°36' E 139°46'0 0.0
2016-Jun-22 04:33N 35°36' E 139°46'3 3.4
2016-Jun-22 03:33N 35°34' E 139°49'3 2.7
2016-Jun-22 02:33N 35°34' E 139°52'0 0.0
2016-Jun-22 01:33N 35°34' E 139°52'0 0.1
2016-Jun-22 00:33N 35°34' E 139°52'5 4.7
2016-Jun-21 23:33N 35°29' E 139°51'1111.4
2016-Jun-21 22:33N 35°19' E 139°44'1110.8
2016-Jun-21 21:33N 35°09' E 139°46'  
2016-Jun-19 06:19N 35°01' E 138°31'37 3.1
2016-Jun-18 18:19N 34°54' E 139°15'1212.2
2016-Jun-18 17:22N 34°60' E 139°27'1012.3
2016-Jun-18 16:32N 35°05' E 139°38'1111.6
2016-Jun-18 15:33N 35°14' E 139°46'1110.8
2016-Jun-18 14:33N 35°24' E 139°41'0 0.1
2016-Jun-18 13:33N 35°24' E 139°41'0 0.0
2016-Jun-18 12:33N 35°24' E 139°41'1 0.6
2016-Jun-18 11:33N 35°24' E 139°40'3 3.0
2016-Jun-18 10:33N 35°23' E 139°44'0 0.0
2016-Jun-18 09:33N 35°23' E 139°44'0 0.0
2016-Jun-18 08:33N 35°23' E 139°44'0 0.0
2016-Jun-18 07:33N 35°23' E 139°44'0 0.0
2016-Jun-18 06:33N 35°23' E 139°44'0 0.0
2016-Jun-18 05:33N 35°23' E 139°44'6 5.9
2016-Jun-18 04:33N 35°29' E 139°45'0 0.3
2016-Jun-18 03:33N 35°29' E 139°45'1111.0
2016-Jun-18 02:33N 35°18' E 139°44'1211.5
2016-Jun-18 01:32N 35°07' E 139°45'  
2016-Jun-15 04:33N 35°02' E 139°31'  
Track history (hours):
 
Tides and Currents Weather Stations Pressure Air Temp Water Temp Dewpoint Dewpoint Depression Visibility Wind Speed Wind Dir Waves Ship Positions

Hiyodori

Last reported at 2016-Jun-25 04:31 UTC. Time now 2016-Jun-25 05:18 UTC.
Position N 35°24' E 139°41'.

Length 88 m; draft 3.6 m.

Type: Cargo ship. MMSI: 431000132.

Date/timePositionNaut miles runAvg speedWind from/ knotsBaromVisibWave heightAir tempDewpointWater temp
2016-Jun-25 04:31N 35°24' E 139°41'2 1.6
2016-Jun-25 03:33N 35°23' E 139°42'2 1.6
2016-Jun-25 02:33N 35°22' E 139°43'5 5.4
2016-Jun-25 01:34N 35°17' E 139°46'1211.7
2016-Jun-25 00:33N 35°05' E 139°44'65 1.8
2016-Jun-23 13:10N 34°32' E 138°35'5010.8
2016-Jun-23 08:30N 34°59' E 139°27'1111.7
2016-Jun-23 07:32N 35°05' E 139°38'2110.5
2016-Jun-23 05:34N 35°25' E 139°45'10 9.6
2016-Jun-23 04:33N 35°34' E 139°48'2 2.2
2016-Jun-23 03:33N 35°36' E 139°46'0 0.0
2016-Jun-23 02:34N 35°36' E 139°46'0 0.0
2016-Jun-23 01:33N 35°36' E 139°46'0 0.0
2016-Jun-23 00:34N 35°36' E 139°46'6 5.1
2016-Jun-22 23:26N 35°34' E 139°53'0 0.0
2016-Jun-22 22:26N 35°34' E 139°53'0 0.0
2016-Jun-22 21:29N 35°34' E 139°53'0 0.0
2016-Jun-22 20:32N 35°34' E 139°53'0 0.0
2016-Jun-22 19:32N 35°34' E 139°53'0 0.0
2016-Jun-22 18:32N 35°34' E 139°53'0 0.0
2016-Jun-22 17:32N 35°34' E 139°53'0 0.0
2016-Jun-22 16:32N 35°34' E 139°53'0 0.0
2016-Jun-22 15:32N 35°34' E 139°53'0 0.0
2016-Jun-22 14:32N 35°34' E 139°53'0 0.1
2016-Jun-22 13:33N 35°34' E 139°53'0 0.0
2016-Jun-22 12:33N 35°34' E 139°53'0 0.0
2016-Jun-22 11:33N 35°34' E 139°53'0 0.0
2016-Jun-22 10:33N 35°34' E 139°53'0 0.1
2016-Jun-22 09:33N 35°34' E 139°53'0 0.0
2016-Jun-22 08:33N 35°34' E 139°53'0 0.0
2016-Jun-22 07:33N 35°34' E 139°53'2 1.8
2016-Jun-22 06:33N 35°32' E 139°51'6 5.7
2016-Jun-22 05:33N 35°36' E 139°46'0 0.0
2016-Jun-22 04:33N 35°36' E 139°46'3 3.4
2016-Jun-22 03:33N 35°34' E 139°49'3 2.7
2016-Jun-22 02:33N 35°34' E 139°52'0 0.0
2016-Jun-22 01:33N 35°34' E 139°52'0 0.1
2016-Jun-22 00:33N 35°34' E 139°52'5 4.7
2016-Jun-21 23:33N 35°29' E 139°51'1111.4
2016-Jun-21 22:33N 35°19' E 139°44'1110.8
2016-Jun-21 21:33N 35°09' E 139°46'  
2016-Jun-19 06:19N 35°01' E 138°31'37 3.1
2016-Jun-18 18:19N 34°54' E 139°15'1212.2
2016-Jun-18 17:22N 34°60' E 139°27'1012.3
2016-Jun-18 16:32N 35°05' E 139°38'1111.6
2016-Jun-18 15:33N 35°14' E 139°46'1110.8
2016-Jun-18 14:33N 35°24' E 139°41'0 0.1
2016-Jun-18 13:33N 35°24' E 139°41'0 0.0
2016-Jun-18 12:33N 35°24' E 139°41'1 0.6
2016-Jun-18 11:33N 35°24' E 139°40'3 3.0
2016-Jun-18 10:33N 35°23' E 139°44'0 0.0
2016-Jun-18 09:33N 35°23' E 139°44'0 0.0
2016-Jun-18 08:33N 35°23' E 139°44'0 0.0
2016-Jun-18 07:33N 35°23' E 139°44'0 0.0
2016-Jun-18 06:33N 35°23' E 139°44'0 0.0
2016-Jun-18 05:33N 35°23' E 139°44'6 5.9
2016-Jun-18 04:33N 35°29' E 139°45'0 0.3
2016-Jun-18 03:33N 35°29' E 139°45'1111.0
2016-Jun-18 02:33N 35°18' E 139°44'1211.5
2016-Jun-18 01:32N 35°07' E 139°45'  
2016-Jun-15 04:33N 35°02' E 139°31'  

Dump ship's entire track history